createdAt,value
2019-04-06T00:01:48.200Z,70.01
2019-04-06T00:04:16.648Z,70.44
2019-04-06T00:06:45.076Z,70.76
2019-04-06T00:09:13.585Z,70.88
2019-04-06T00:11:42.049Z,71.08
2019-04-06T00:14:10.477Z,71.35
2019-04-06T00:16:38.985Z,71.81
2019-04-06T00:19:07.460Z,71.88
2019-04-06T00:21:35.908Z,72.39
2019-04-06T00:24:04.481Z,72.62
2019-04-06T00:26:32.948Z,73.10
2019-04-06T00:29:01.434Z,73.48
2019-04-06T00:31:34.489Z,73.32
2019-04-06T00:34:02.973Z,73.09
2019-04-06T00:36:31.408Z,73.97
2019-04-06T00:38:59.886Z,74.17
2019-04-06T00:41:28.380Z,74.52
2019-04-06T00:43:56.797Z,74.42
2019-04-06T00:46:25.338Z,74.55
2019-04-06T00:48:53.822Z,75.18
2019-04-06T00:51:22.422Z,75.22
2019-04-06T00:53:50.841Z,74.93
2019-04-06T00:56:19.269Z,75.53
2019-04-06T00:58:47.704Z,75.81
2019-04-06T01:01:16.208Z,76.07
2019-04-06T01:03:44.623Z,76.10
2019-04-06T01:06:13.117Z,76.08
2019-04-06T01:08:41.638Z,76.97
2019-04-06T01:11:10.058Z,76.86
2019-04-06T01:13:38.500Z,76.17
2019-04-06T01:16:06.926Z,77.14
2019-04-06T01:18:35.625Z,76.79
2019-04-06T01:21:04.537Z,77.00
2019-04-06T01:23:33.283Z,76.96
2019-04-06T01:26:07.662Z,76.81
2019-04-06T01:28:32.501Z,76.66
2019-04-06T01:31:01.402Z,77.05
2019-04-06T01:33:30.024Z,76.95
2019-04-06T01:35:58.819Z,76.61
2019-04-06T01:38:27.289Z,76.34
2019-04-06T01:40:56.030Z,76.67
2019-04-06T01:43:24.446Z,77.02
2019-04-06T01:45:52.888Z,76.92
2019-04-06T01:48:21.324Z,76.78
2019-04-06T01:50:49.751Z,77.27
2019-04-06T01:53:18.186Z,77.40
2019-04-06T01:55:46.622Z,77.35
2019-04-06T01:58:15.060Z,77.82
2019-04-06T02:00:45.172Z,77.38
2019-04-06T02:03:13.688Z,77.37
2019-04-06T02:05:42.078Z,77.97
2019-04-06T02:08:10.516Z,78.06
2019-04-06T02:10:39.001Z,77.93
2019-04-06T02:13:07.421Z,78.06
2019-04-06T02:15:35.876Z,78.21
2019-04-06T02:18:05.954Z,78.70
2019-04-06T02:20:34.605Z,78.64
2019-04-06T02:23:03.057Z,78.12
2019-04-06T02:25:31.502Z,78.04
2019-04-06T02:27:59.940Z,78.30
2019-04-06T02:30:36.095Z,78.00
2019-04-06T02:33:22.482Z,77.88
2019-04-06T02:35:52.624Z,78.58
2019-04-06T02:38:22.742Z,78.07
2019-04-06T02:40:52.809Z,78.74
2019-04-06T02:43:22.902Z,78.09
2019-04-06T02:45:51.506Z,78.21
2019-04-06T02:48:19.883Z,77.94
2019-04-06T02:50:48.588Z,78.40
2019-04-06T02:53:17.364Z,78.29
2019-04-06T02:55:45.862Z,78.35
2019-04-06T02:58:14.508Z,78.11
2019-04-06T03:00:43.175Z,77.93
2019-04-06T03:03:11.571Z,77.82
2019-04-06T03:05:40.048Z,78.21
2019-04-06T03:08:08.459Z,78.52
2019-04-06T03:10:36.896Z,78.59
2019-04-06T03:13:05.345Z,78.31
2019-04-06T03:15:33.776Z,78.16
2019-04-06T03:18:02.396Z,78.26
2019-04-06T03:20:30.889Z,77.85
2019-04-06T03:22:59.356Z,78.44
2019-04-06T03:25:27.935Z,78.52
2019-04-06T03:27:56.396Z,78.73
2019-04-06T03:30:24.817Z,78.50
2019-04-06T03:32:54.890Z,78.39
2019-04-06T03:35:23.297Z,78.15
2019-04-06T03:37:51.789Z,77.88
2019-04-06T03:40:20.257Z,78.01
2019-04-06T03:42:48.689Z,77.67
2019-04-06T03:45:17.336Z,77.59
2019-04-06T03:47:45.758Z,77.47
2019-04-06T03:50:14.339Z,77.13
2019-04-06T03:52:42.824Z,77.20
2019-04-06T03:55:11.717Z,77.08
2019-04-06T03:57:40.152Z,77.46
2019-04-06T04:00:09.177Z,77.47
2019-04-06T04:02:37.568Z,77.45
2019-04-06T04:05:07.405Z,77.76
2019-04-06T04:07:35.794Z,77.33
2019-04-06T04:10:07.015Z,77.50
2019-04-06T04:12:35.429Z,77.77
2019-04-06T04:15:04.252Z,77.69
2019-04-06T04:17:32.782Z,77.83
2019-04-06T04:20:01.198Z,77.69
2019-04-06T04:22:29.754Z,77.94
2019-04-06T04:24:58.117Z,77.79
2019-04-06T04:27:29.675Z,77.90
2019-04-06T04:29:56.803Z,77.41
2019-04-06T04:32:25.252Z,77.32
2019-04-06T04:34:53.679Z,77.20
2019-04-06T04:37:22.199Z,77.65
2019-04-06T04:39:50.662Z,77.49
2019-04-06T04:42:19.082Z,77.69
2019-04-06T04:44:47.514Z,77.62
2019-04-06T04:47:16.229Z,77.69
2019-04-06T04:49:44.772Z,77.60
2019-04-06T04:52:13.204Z,77.56
2019-04-06T04:54:41.633Z,77.98
2019-04-06T04:57:10.083Z,77.88
2019-04-06T04:59:38.543Z,77.57
2019-04-06T05:02:07.104Z,77.73
2019-04-06T05:04:35.474Z,77.97
2019-04-06T05:07:03.972Z,77.65
2019-04-06T05:09:33.063Z,77.82
2019-04-06T05:12:01.591Z,77.83
2019-04-06T05:15:01.779Z,78.08
2019-04-06T05:17:29.867Z,78.14
2019-04-06T05:19:58.299Z,76.22
2019-04-06T05:22:27.171Z,78.89
2019-04-06T05:24:55.890Z,79.13
2019-04-06T05:27:24.349Z,80.03
2019-04-06T05:29:52.776Z,79.90
2019-04-06T05:32:21.231Z,80.40
2019-04-06T05:34:49.660Z,80.68
2019-04-06T05:37:18.221Z,81.06
2019-04-06T05:39:46.606Z,80.96
2019-04-06T05:42:15.040Z,81.25
2019-04-06T05:44:43.480Z,80.93
2019-04-06T05:47:11.912Z,81.00
2019-04-06T05:49:40.343Z,81.69
2019-04-06T05:52:08.782Z,81.88
2019-04-06T05:54:37.211Z,81.76
2019-04-06T05:57:05.650Z,81.64
2019-04-06T05:59:34.073Z,81.33
2019-04-06T06:02:02.789Z,81.10
2019-04-06T06:04:31.379Z,81.51
2019-04-06T06:06:59.801Z,81.31
2019-04-06T06:09:28.293Z,80.96
2019-04-06T06:11:56.721Z,80.92
2019-04-06T06:14:25.155Z,80.73
2019-04-06T06:16:53.590Z,80.62
2019-04-06T06:19:22.021Z,80.76
2019-04-06T06:21:50.462Z,80.98
2019-04-06T06:24:18.925Z,80.56
2019-04-06T06:26:47.377Z,81.00
2019-04-06T06:29:15.812Z,80.73
2019-04-06T06:31:44.278Z,80.78
2019-04-06T06:34:12.848Z,80.41
2019-04-06T06:36:41.232Z,80.07
2019-04-06T06:39:10.699Z,79.70
2019-04-06T06:41:39.134Z,79.15
2019-04-06T06:44:07.580Z,78.82
2019-04-06T06:46:36.028Z,78.63
2019-04-06T06:49:04.493Z,78.40
2019-04-06T06:51:32.928Z,77.90
2019-04-06T06:54:01.379Z,77.77
2019-04-06T06:56:33.035Z,77.55
2019-04-06T06:59:01.469Z,77.35
2019-04-06T07:01:29.964Z,77.08
2019-04-06T07:03:58.382Z,77.09
2019-04-06T07:06:26.815Z,76.98
2019-04-06T07:08:55.261Z,76.88
2019-04-06T07:11:23.819Z,76.53
2019-04-06T07:13:52.222Z,76.27
2019-04-06T07:16:20.660Z,76.33
2019-04-06T07:18:49.113Z,75.72
2019-04-06T07:21:17.645Z,76.40
2019-04-06T07:23:46.247Z,74.91
2019-04-06T07:26:14.707Z,74.81
2019-04-06T07:28:43.144Z,75.19
2019-04-06T07:31:11.648Z,74.34
2019-04-06T07:33:40.086Z,74.39
2019-04-06T07:36:08.522Z,73.50
2019-04-06T07:38:38.309Z,72.97
2019-04-06T07:41:06.938Z,72.38
2019-04-06T07:43:35.381Z,71.41
2019-04-06T07:46:03.968Z,70.87
2019-04-06T07:48:32.347Z,70.83
2019-04-06T07:51:00.911Z,70.46
2019-04-06T07:53:29.477Z,69.80
2019-04-06T07:55:57.851Z,70.59
2019-04-06T07:58:26.290Z,71.02
2019-04-06T08:00:54.904Z,70.44
2019-04-06T08:03:23.772Z,70.37
2019-04-06T08:05:52.212Z,69.88
2019-04-06T08:08:20.610Z,69.18
2019-04-06T08:10:49.205Z,68.69
2019-04-06T08:13:17.662Z,68.24
2019-04-06T08:15:46.327Z,67.76
2019-04-06T08:18:14.797Z,67.58
2019-04-06T08:20:43.257Z,66.85
2019-04-06T08:23:11.995Z,67.15
2019-04-06T08:25:40.520Z,65.76
2019-04-06T08:28:08.952Z,65.56
2019-04-06T08:30:45.776Z,64.48
2019-04-06T08:33:06.848Z,63.95
2019-04-06T08:35:35.209Z,65.02
2019-04-06T08:38:04.219Z,62.97
2019-04-06T08:40:32.692Z,61.82
2019-04-06T08:43:01.127Z,61.65
2019-04-06T08:45:29.755Z,61.68
2019-04-06T08:47:58.389Z,62.58
2019-04-06T08:50:26.929Z,59.61
2019-04-06T08:52:55.438Z,59.92
2019-04-06T08:55:23.871Z,59.11
2019-04-06T08:57:52.598Z,58.93
2019-04-06T09:00:21.153Z,58.58
2019-04-06T09:02:50.122Z,57.91
2019-04-06T09:05:18.568Z,57.50
2019-04-06T09:07:47.020Z,57.36
2019-04-06T09:10:15.945Z,57.80
2019-04-06T09:12:45.032Z,57.95
2019-04-06T09:15:16.746Z,57.74
2019-04-06T09:17:45.538Z,58.42
2019-04-06T09:20:14.329Z,56.01
2019-04-06T09:22:42.769Z,56.01
2019-04-06T09:25:11.273Z,57.03
2019-04-06T09:27:39.882Z,55.00
2019-04-06T09:30:08.866Z,52.47
2019-04-06T09:32:37.347Z,51.97
2019-04-06T09:35:06.155Z,51.38
2019-04-06T09:37:34.635Z,51.31
2019-04-06T09:40:03.626Z,51.89
2019-04-06T09:42:32.053Z,51.25
2019-04-06T09:45:18.537Z,50.54
2019-04-06T09:47:54.522Z,49.73
2019-04-06T09:50:24.585Z,50.04
2019-04-06T09:53:06.579Z,50.12
2019-04-06T09:55:36.668Z,49.16
2019-04-06T09:58:23.312Z,47.46
2019-04-06T10:00:53.296Z,45.78
2019-04-06T10:03:28.957Z,46.59
2019-04-06T10:06:04.992Z,45.59
2019-04-06T10:08:35.251Z,43.77
2019-04-06T10:11:05.399Z,44.48
2019-04-06T10:13:49.640Z,42.65
2019-04-06T10:16:22.111Z,47.19
2019-04-06T10:19:08.755Z,43.29
2019-04-06T10:21:45.194Z,41.83
2019-04-06T10:24:18.496Z,40.90
2019-04-06T10:27:00.708Z,40.00
2019-04-06T10:29:50.174Z,39.66
2019-04-06T10:32:26.260Z,38.27
2019-04-06T10:35:08.438Z,38.46
2019-04-06T10:37:38.542Z,38.24
2019-04-06T10:40:17.287Z,37.93
2019-04-06T10:42:47.308Z,41.84
2019-04-06T10:45:17.644Z,37.18
2019-04-06T10:48:05.500Z,38.00
2019-04-06T10:50:35.577Z,37.92
2019-04-06T10:53:14.733Z,36.85
2019-04-06T10:56:01.108Z,36.26
2019-04-06T10:58:40.307Z,36.44
2019-04-06T11:01:25.205Z,35.73
2019-04-06T11:03:55.281Z,35.88
2019-04-06T11:06:31.749Z,34.40
2019-04-06T11:09:07.898Z,36.10
2019-04-06T11:11:53.278Z,35.86
2019-04-06T11:14:26.057Z,35.61
2019-04-06T11:17:01.822Z,35.22
2019-04-06T11:19:40.667Z,33.50
2019-04-06T11:22:26.849Z,34.08
2019-04-06T11:24:56.922Z,33.15
2019-04-06T11:27:26.988Z,32.66
2019-04-06T11:29:57.098Z,32.94
2019-04-06T11:32:45.519Z,32.63
2019-04-06T11:35:32.355Z,33.10
2019-04-06T11:38:11.284Z,33.51
2019-04-06T11:40:41.360Z,33.83
2019-04-06T11:43:17.409Z,32.68
2019-04-06T11:45:56.816Z,32.73
2019-04-06T11:48:41.826Z,32.21
2019-04-06T11:51:28.084Z,31.45
2019-04-06T11:54:01.295Z,31.28
2019-04-06T11:56:34.488Z,31.16
2019-04-06T11:59:22.960Z,31.86
2019-04-06T12:02:09.248Z,31.98
2019-04-06T12:04:45.253Z,32.24
2019-04-06T12:07:31.681Z,31.43
2019-04-06T12:10:04.306Z,31.45
2019-04-06T12:12:40.369Z,30.64
2019-04-06T12:15:19.660Z,29.44
2019-04-06T12:18:05.887Z,28.79
2019-04-06T12:20:35.938Z,28.71
2019-04-06T12:23:06.025Z,28.69
2019-04-06T12:25:39.227Z,28.54
2019-04-06T12:28:21.895Z,28.10
2019-04-06T12:30:52.112Z,27.77
2019-04-06T12:33:22.189Z,26.40
2019-04-06T12:36:08.664Z,26.86
2019-04-06T12:38:41.711Z,26.95
2019-04-06T12:41:29.814Z,27.90
2019-04-06T12:44:09.078Z,27.16
2019-04-06T12:46:51.275Z,28.37
2019-04-06T12:49:36.106Z,27.46
2019-04-06T12:52:09.302Z,27.80
2019-04-06T12:54:55.961Z,27.85
2019-04-06T12:57:37.805Z,28.19
2019-04-06T13:00:25.162Z,28.18
2019-04-06T13:02:55.185Z,28.06
2019-04-06T13:05:34.258Z,28.45
2019-04-06T13:08:04.425Z,28.57
2019-04-06T13:10:37.436Z,28.40
2019-04-06T13:13:22.678Z,28.95
2019-04-06T13:15:58.470Z,28.24
2019-04-06T13:18:37.698Z,29.09
2019-04-06T13:21:24.177Z,28.47
2019-04-06T13:24:00.127Z,28.79
2019-04-06T13:26:46.380Z,28.80
2019-04-06T13:29:28.300Z,28.59
2019-04-06T13:32:14.485Z,28.12
2019-04-06T13:35:00.654Z,26.81
2019-04-06T13:37:33.728Z,25.92
2019-04-06T13:40:15.779Z,27.11
2019-04-06T13:42:45.846Z,27.63
2019-04-06T13:45:27.950Z,26.74
2019-04-06T13:47:58.029Z,27.74
2019-04-06T13:50:28.106Z,26.59
2019-04-06T13:53:10.466Z,26.94
2019-04-06T13:55:40.936Z,28.12
2019-04-06T13:58:11.172Z,27.74
2019-04-06T14:00:49.961Z,26.90
2019-04-06T14:03:38.113Z,26.91
2019-04-06T14:06:24.642Z,28.20
2019-04-06T14:09:03.647Z,27.19
2019-04-06T14:11:36.556Z,27.15
2019-04-06T14:14:22.560Z,26.55
2019-04-06T14:16:55.390Z,26.59
2019-04-06T14:19:42.403Z,27.52
2019-04-06T14:22:24.634Z,26.48
2019-04-06T14:25:10.933Z,26.31
2019-04-06T14:27:57.182Z,26.38
2019-04-06T14:30:27.251Z,26.73
2019-04-06T14:33:03.138Z,26.81
2019-04-06T14:35:48.210Z,26.82
2019-04-06T14:38:18.305Z,26.68
2019-04-06T14:40:57.150Z,26.22
2019-04-06T14:43:27.320Z,25.90
2019-04-06T14:45:58.225Z,26.72
2019-04-06T14:48:31.106Z,25.85
2019-04-06T14:51:07.312Z,26.05
2019-04-06T14:53:43.415Z,25.53
2019-04-06T14:56:28.793Z,26.64
2019-04-06T14:58:59.140Z,26.00
2019-04-06T15:01:53.391Z,25.70
2019-04-06T15:04:24.687Z,25.58
2019-04-06T15:06:54.826Z,26.40
2019-04-06T15:09:24.855Z,25.75
2019-04-06T15:11:54.929Z,26.69
2019-04-06T15:14:41.407Z,26.30
2019-04-06T15:17:20.757Z,27.35
2019-04-06T15:20:06.980Z,27.20
2019-04-06T15:22:48.789Z,27.26
2019-04-06T15:25:21.824Z,27.18
2019-04-06T15:28:08.396Z,27.42
2019-04-06T15:30:54.580Z,28.30
2019-04-06T15:33:30.983Z,32.01
2019-04-06T15:36:19.438Z,33.70
2019-04-06T15:38:55.388Z,34.21
2019-04-06T15:41:28.651Z,35.41
2019-04-06T15:44:01.347Z,36.37
2019-04-06T15:46:43.717Z,36.86
2019-04-06T15:49:22.995Z,37.73
2019-04-06T15:52:11.506Z,37.98
2019-04-06T15:54:41.221Z,38.73
2019-04-06T15:57:13.958Z,39.24
2019-04-06T16:00:00.871Z,38.67
2019-04-06T16:02:37.136Z,39.19
2019-04-06T16:05:25.636Z,39.74
2019-04-06T16:08:11.024Z,39.86
2019-04-06T16:10:52.818Z,40.59
2019-04-06T16:13:25.840Z,41.58
2019-04-06T16:15:58.584Z,41.26
2019-04-06T16:18:47.352Z,41.48
2019-04-06T16:21:26.655Z,41.35
2019-04-06T16:24:02.968Z,40.73
2019-04-06T16:26:31.263Z,40.83
2019-04-06T16:29:03.907Z,40.51
2019-04-06T16:31:34.266Z,40.75
2019-04-06T16:34:10.235Z,40.86
2019-04-06T16:36:42.992Z,40.41
2019-04-06T16:39:16.271Z,40.68
2019-04-06T16:41:46.554Z,40.57
2019-04-06T16:44:19.246Z,39.40
2019-04-06T16:47:01.419Z,38.85
2019-04-06T16:49:49.488Z,39.24
2019-04-06T16:52:27.171Z,39.72
2019-04-06T16:55:05.763Z,39.15
2019-04-06T16:57:51.982Z,39.72
2019-04-06T17:00:22.056Z,39.59
2019-04-06T17:02:55.122Z,40.02
2019-04-06T17:05:31.482Z,39.56
2019-04-06T17:08:10.767Z,39.92
2019-04-06T17:10:42.643Z,40.06
2019-04-06T17:13:13.082Z,40.70
2019-04-06T17:15:58.406Z,40.70
2019-04-06T17:18:34.064Z,40.80
2019-04-06T17:21:13.715Z,41.09
2019-04-06T17:23:46.787Z,41.41
2019-04-06T17:26:28.913Z,41.04
2019-04-06T17:29:11.041Z,41.40
2019-04-06T17:31:56.368Z,42.12
2019-04-06T17:34:32.588Z,41.85
2019-04-06T17:37:20.230Z,42.11
2019-04-06T17:40:03.111Z,42.62
2019-04-06T17:42:34.399Z,42.39
2019-04-06T17:45:16.329Z,43.54
2019-04-06T17:48:01.247Z,43.69
2019-04-06T17:50:37.647Z,43.95
2019-04-06T17:53:10.578Z,44.12
2019-04-06T17:55:46.818Z,44.26
2019-04-06T17:58:19.704Z,45.10
2019-04-06T18:01:07.699Z,45.29
2019-04-06T18:03:37.779Z,45.40
2019-04-06T18:06:10.433Z,45.68
2019-04-06T18:08:40.531Z,45.19
2019-04-06T18:11:10.610Z,45.70
2019-04-06T18:13:43.503Z,46.53
2019-04-06T18:16:11.974Z,46.76
2019-04-06T18:18:40.713Z,47.02
2019-04-06T18:21:09.149Z,47.44
2019-04-06T18:23:38.128Z,47.65
2019-04-06T18:26:06.741Z,48.45
2019-04-06T18:28:35.392Z,48.57
2019-04-06T18:31:05.806Z,48.83
2019-04-06T18:33:33.656Z,49.24
2019-04-06T18:36:02.514Z,46.75
2019-04-06T18:38:32.576Z,48.82
2019-04-06T18:41:01.419Z,49.90
2019-04-06T18:43:30.417Z,49.89
2019-04-06T18:45:59.026Z,50.57
2019-04-06T18:48:27.525Z,51.14
2019-04-06T18:50:56.769Z,51.15
2019-04-06T18:53:25.185Z,51.68
2019-04-06T18:55:53.821Z,51.96
2019-04-06T18:58:22.336Z,52.20
2019-04-06T19:00:50.977Z,52.62
2019-04-06T19:03:19.436Z,52.86
2019-04-06T19:05:49.867Z,52.95
2019-04-06T19:08:18.079Z,53.28
2019-04-06T19:10:46.481Z,53.45
2019-04-06T19:13:14.929Z,53.55
2019-04-06T19:15:43.471Z,53.49
2019-04-06T19:18:11.939Z,53.45
2019-04-06T19:20:40.851Z,53.80
2019-04-06T19:23:09.406Z,54.18
2019-04-06T19:25:37.822Z,54.27
2019-04-06T19:28:06.567Z,54.39
2019-04-06T19:30:35.167Z,54.58
2019-04-06T19:33:03.595Z,55.08
2019-04-06T19:35:32.029Z,55.13
2019-04-06T19:38:00.493Z,55.39
2019-04-06T19:40:29.278Z,55.50
2019-04-06T19:42:57.843Z,56.00
2019-04-06T19:45:26.377Z,55.99
2019-04-06T19:47:55.066Z,56.08
2019-04-06T19:50:23.509Z,56.52
2019-04-06T19:52:51.961Z,56.71
2019-04-06T19:55:20.385Z,57.11
2019-04-06T19:57:48.836Z,57.51
2019-04-06T20:00:17.909Z,57.85
2019-04-06T20:02:47.372Z,57.96
2019-04-06T20:05:15.836Z,58.31
2019-04-06T20:07:44.584Z,58.60
2019-04-06T20:10:13.181Z,59.16
2019-04-06T20:12:41.614Z,59.34
2019-04-06T20:15:10.361Z,59.61
2019-04-06T20:17:39.083Z,59.83
2019-04-06T20:20:08.240Z,59.97
2019-04-06T20:22:36.720Z,60.46
2019-04-06T20:25:07.242Z,60.42
2019-04-06T20:27:35.636Z,60.67
2019-04-06T20:30:06.858Z,60.81
2019-04-06T20:32:35.594Z,61.17
2019-04-06T20:35:06.519Z,61.67
2019-04-06T20:37:35.780Z,61.47
2019-04-06T20:40:08.834Z,61.70
2019-04-06T20:42:37.301Z,61.92
2019-04-06T20:45:07.391Z,62.21
2019-04-06T20:47:36.479Z,62.12
2019-04-06T20:50:07.197Z,62.26
2019-04-06T20:52:37.151Z,61.91
2019-04-06T20:55:07.968Z,62.30
2019-04-06T20:57:37.311Z,62.49
2019-04-06T21:00:09.719Z,62.58
2019-04-06T21:02:38.385Z,62.47
2019-04-06T21:05:08.113Z,62.93
2019-04-06T21:07:37.019Z,63.31
2019-04-06T21:10:09.872Z,63.49
2019-04-06T21:12:38.730Z,63.46
2019-04-06T21:15:16.949Z,63.84
2019-04-06T21:17:37.973Z,64.05
2019-04-06T21:20:08.089Z,63.90
2019-04-06T21:22:36.570Z,64.50
2019-04-06T21:25:06.996Z,64.47
2019-04-06T21:27:36.095Z,64.87
2019-04-06T21:30:07.386Z,65.19
2019-04-06T21:32:36.050Z,65.58
2019-04-06T21:35:06.928Z,65.76
2019-04-06T21:37:35.805Z,65.77
2019-04-06T21:40:05.495Z,66.23
2019-04-06T21:42:33.862Z,66.64
2019-04-06T21:45:02.825Z,66.50
2019-04-06T21:47:31.862Z,66.89
2019-04-06T21:50:00.950Z,66.69
2019-04-06T21:52:29.401Z,67.04
2019-04-06T21:54:57.897Z,67.46
2019-04-06T21:57:26.383Z,67.67
2019-04-06T21:59:55.143Z,67.91
2019-04-06T22:02:24.193Z,67.83
2019-04-06T22:04:52.594Z,68.34
2019-04-06T22:07:21.028Z,68.33
2019-04-06T22:09:49.469Z,68.08
2019-04-06T22:12:18.015Z,68.68
2019-04-06T22:14:46.475Z,68.84
2019-04-06T22:17:15.354Z,68.71
2019-04-06T22:19:44.503Z,69.00
2019-04-06T22:22:12.955Z,69.12
2019-04-06T22:24:41.833Z,69.14
2019-04-06T22:27:10.906Z,69.41
2019-04-06T22:29:39.773Z,69.78
2019-04-06T22:32:08.710Z,69.85
2019-04-06T22:34:40.246Z,69.70
2019-04-06T22:37:07.422Z,70.01
2019-04-06T22:39:36.444Z,69.81
2019-04-06T22:42:05.151Z,69.93
2019-04-06T22:44:33.601Z,69.90
2019-04-06T22:47:02.446Z,70.31
2019-04-06T22:49:32.080Z,70.59
2019-04-06T22:52:00.007Z,70.00
2019-04-06T22:54:28.732Z,66.59
2019-04-06T22:56:57.694Z,70.57
2019-04-06T22:59:27.167Z,70.35
2019-04-06T23:01:56.023Z,71.02
2019-04-06T23:04:29.016Z,71.29
2019-04-06T23:07:17.775Z,71.45
2019-04-06T23:09:46.650Z,71.27
2019-04-06T23:12:15.550Z,71.58
2019-04-06T23:14:44.336Z,71.96
2019-04-06T23:17:12.900Z,72.16
2019-04-06T23:19:41.946Z,71.36
2019-04-06T23:22:10.459Z,72.00
2019-04-06T23:24:38.892Z,72.06
2019-04-06T23:27:07.897Z,72.19
2019-04-06T23:29:37.221Z,72.36
2019-04-06T23:32:05.819Z,72.47
2019-04-06T23:34:34.309Z,72.33
2019-04-06T23:37:02.730Z,72.14
2019-04-06T23:39:31.208Z,72.14
2019-04-06T23:42:00.145Z,72.53
2019-04-06T23:44:28.671Z,72.69
2019-04-06T23:46:57.650Z,72.67
2019-04-06T23:49:26.029Z,72.93
2019-04-06T23:51:54.474Z,73.26
2019-04-06T23:54:22.919Z,73.09
2019-04-06T23:56:51.371Z,73.40
2019-04-06T23:59:19.996Z,73.07
